Junction, Texas
Current Conditions -  °F | °C
As of 4:51 AM on Saturday 20 Dec 2014 (Local Time) from KJCT Reporting Station
Haze Haze  
Wind Chill: 43°   Ceiling: 1100
Heat Index: 43°   Visibility: 5mi
Dew Point: 42°   Wind: 0mph
Humidity: 97%   Direction: NA
Pressure: 30.16"   Gusts: NA
Location:  30.49°N, 99.77°W
Report Text: KJCT 201051Z AUTO 00000KT 5SM BR OVC011 06/06 A3016 RMK AO2 SLP196 T00610056
Loading
Personal Weather Stations






























Interactive Weather Map New forecast layout! Learn more

10-Day Weather Forecast

Advertisements
Track Severe Weather on mobile